Time;durP1;ratioP1;P1;durP2;ratioP2;P2;SDS_P1;SDS_P2;PMS_P1;PMS_P2;Temp;Humidity;BMP_temperature;BMP_pressure;BME280_temperature;BME280_humidity;BME280_pressure;Samples;Min_cycle;Max_cycle;Signal;HPM_P1;HPM_P2
2022/12/28 00:02:21;;;;;;;3.10;1.17;;;8.30;99.90;;;;;;5048977;28;20165;-78
2022/12/28 00:04:47;;;;;;;3.07;1.00;;;8.30;99.90;;;;;;5013704;28;20200;-78
2022/12/28 00:07:13;;;;;;;3.47;1.00;;;8.40;99.90;;;;;;5048492;28;20630;-78
2022/12/28 00:09:38;;;;;;;3.13;0.97;;;8.40;99.90;;;;;;5030807;28;20169;-78
2022/12/28 00:12:04;;;;;;;2.60;1.10;;;8.40;99.90;;;;;;5049515;28;20543;-78
2022/12/28 00:14:30;;;;;;;4.13;1.00;;;8.50;99.90;;;;;;5030210;28;20192;-77
2022/12/28 00:16:56;;;;;;;3.30;0.90;;;8.50;99.90;;;;;;5014587;28;21085;-77
2022/12/28 00:19:21;;;;;;;4.23;1.20;;;8.60;99.90;;;;;;5058727;28;20179;-78
2022/12/28 00:21:47;;;;;;;4.07;1.10;;;8.60;99.90;;;;;;5046272;28;20165;-78
2022/12/28 00:24:21;;;;;;;3.13;1.10;;;8.60;99.90;;;;;;5028697;28;20185;-78
2022/12/28 00:26:47;;;;;;;5.75;1.20;;;8.70;99.90;;;;;;4994720;28;20697;-79
2022/12/28 00:29:13;;;;;;;3.63;1.20;;;8.80;99.90;;;;;;4994960;28;20269;-78
2022/12/28 00:31:39;;;;;;;1.70;0.90;;;8.80;99.90;;;;;;5033620;28;20266;-77
2022/12/28 00:34:05;;;;;;;3.10;1.23;;;8.80;99.90;;;;;;4978359;28;20302;-77
2022/12/28 00:36:32;;;;;;;2.60;0.73;;;8.90;99.90;;;;;;4994925;28;20596;-78
2022/12/28 00:38:58;;;;;;;3.63;1.33;;;8.90;99.90;;;;;;5028994;28;20582;-78
2022/12/28 00:41:24;;;;;;;2.08;0.73;;;8.90;99.90;;;;;;4995179;28;20181;-77
2022/12/28 00:43:50;;;;;;;2.53;0.90;;;8.90;99.90;;;;;;4994042;28;20186;-77
2022/12/28 00:46:16;;;;;;;3.33;1.08;;;8.90;99.90;;;;;;5011124;28;20585;-77
2022/12/28 00:48:42;;;;;;;1.70;0.87;;;8.90;99.90;;;;;;4994377;28;20204;-77
2022/12/28 00:51:12;;;;;;;3.20;1.00;;;8.90;99.90;;;;;;5017950;28;20208;-77
2022/12/28 00:53:38;;;;;;;2.50;1.30;;;8.90;99.90;;;;;;5008469;28;20634;-76
2022/12/28 00:56:22;;;;;;;3.13;1.10;;;8.90;99.90;;;;;;5025038;28;20744;-77
2022/12/28 00:58:48;;;;;;;2.95;0.80;;;8.80;99.90;;;;;;5045179;28;20203;-77
2022/12/28 01:01:20;;;;;;;2.47;0.87;;;8.90;99.90;;;;;;5033789;28;20725;-77
2022/12/28 01:03:46;;;;;;;3.22;0.85;;;8.80;99.90;;;;;;5033341;28;20701;-77
2022/12/28 01:06:15;;;;;;;3.97;0.88;;;8.90;99.90;;;;;;5033722;28;20172;-77
2022/12/28 01:08:41;;;;;;;2.95;0.90;;;8.90;99.90;;;;;;5064798;28;20253;-77
2022/12/28 01:11:24;;;;;;;3.10;0.88;;;8.90;99.90;;;;;;5013578;28;20184;-78
2022/12/28 01:13:54;;;;;;;3.08;0.90;;;8.90;99.90;;;;;;5047637;28;20247;-77
2022/12/28 01:16:22;;;;;;;3.20;1.10;;;8.90;99.90;;;;;;5030223;28;20187;-77
2022/12/28 01:18:51;;;;;;;1.95;0.80;;;9.00;99.90;;;;;;5014234;28;20240;-76
2022/12/28 01:21:20;;;;;;;5.15;1.20;;;9.00;99.90;;;;;;5033595;28;20180;-77
2022/12/28 01:23:47;;;;;;;4.07;1.02;;;9.00;99.90;;;;;;5051527;28;20181;-77
2022/12/28 01:26:14;;;;;;;3.50;0.90;;;9.00;99.90;;;;;;5033886;28;20188;-77
2022/12/28 01:28:40;;;;;;;2.03;0.80;;;9.00;99.90;;;;;;5033719;28;20189;-77
2022/12/28 01:31:09;;;;;;;3.50;1.43;;;9.00;99.90;;;;;;5051330;28;20875;-77
2022/12/28 01:33:34;;;;;;;3.05;0.90;;;9.00;99.90;;;;;;5051192;28;20603;-77
2022/12/28 01:36:16;;;;;;;2.30;0.80;;;9.00;99.90;;;;;;5017616;28;20857;-76
2022/12/28 01:38:43;;;;;;;2.75;0.80;;;9.00;99.90;;;;;;5000816;28;20205;-77
2022/12/28 01:41:11;;;;;;;1.77;0.90;;;9.00;99.90;;;;;;5016738;28;20216;-76
2022/12/28 01:43:41;;;;;;;5.60;1.08;;;9.00;99.90;;;;;;5033126;28;20193;-76
2022/12/28 01:46:31;;;;;;;4.43;0.90;;;9.00;99.90;;;;;;5056549;28;20268;-76
2022/12/28 01:48:56;;;;;;;2.00;0.93;;;9.00;99.90;;;;;;5037879;28;20209;-76
2022/12/28 01:51:25;;;;;;;3.30;1.20;;;9.10;99.90;;;;;;5016961;28;20215;-76
2022/12/28 01:53:53;;;;;;;1.90;0.80;;;9.10;99.90;;;;;;5032292;28;20244;-76
2022/12/28 01:56:21;;;;;;;4.10;1.33;;;9.10;99.90;;;;;;5016762;28;20173;-76
2022/12/28 01:58:48;;;;;;;3.50;1.05;;;9.10;99.90;;;;;;5033045;28;20205;-77
2022/12/28 02:01:14;;;;;;;3.45;0.95;;;9.10;99.90;;;;;;5016456;28;20635;-76
2022/12/28 02:03:40;;;;;;;3.00;1.10;;;9.10;99.90;;;;;;5045927;28;20296;-77
2022/12/28 02:06:10;;;;;;;1.70;0.90;;;9.20;99.90;;;;;;5019051;28;20934;-77
2022/12/28 02:09:15;;;;;;;4.25;1.00;;;9.20;99.90;;;;;;5033415;28;21146;-77
2022/12/28 02:11:42;;;;;;;4.38;1.10;;;9.20;99.90;;;;;;5016246;28;20176;-77
2022/12/28 02:14:10;;;;;;;2.75;0.90;;;9.20;99.90;;;;;;5015937;28;20779;-76
2022/12/28 02:16:35;;;;;;;2.03;0.98;;;9.30;99.90;;;;;;5016400;28;20200;-77
2022/12/28 02:19:02;;;;;;;3.00;1.00;;;9.30;99.90;;;;;;5033584;28;20244;-77
2022/12/28 02:21:47;;;;;;;2.10;0.95;;;9.40;99.90;;;;;;5035872;28;20188;-77
2022/12/28 02:24:40;;;;;;;3.45;0.90;;;9.40;99.90;;;;;;5050524;28;20185;-77
2022/12/28 02:27:41;;;;;;;4.15;0.80;;;9.40;99.90;;;;;;5032865;28;20169;-78
2022/12/28 02:30:09;;;;;;;3.00;0.80;;;9.40;99.90;;;;;;5015861;28;20334;-76
2022/12/28 02:33:03;;;;;;;3.92;0.82;;;9.50;99.90;;;;;;5031856;28;20213;-77
2022/12/28 02:35:47;;;;;;;2.85;0.80;;;9.50;99.90;;;;;;5016776;28;20176;-77
2022/12/28 02:38:19;;;;;;;1.90;0.82;;;9.50;99.90;;;;;;5032856;28;20568;-77
2022/12/28 02:40:59;;;;;;;1.80;0.80;;;9.60;99.90;;;;;;5016113;28;20248;-77
2022/12/28 02:43:26;;;;;;;1.90;0.80;;;9.60;99.90;;;;;;5031677;28;20207;-77
2022/12/28 02:51:38;;;;;;;3.00;1.05;;;9.60;99.90;;;;;;5032221;28;20185;-77
2022/12/28 02:57:45;;;;;;;3.10;1.00;;;9.70;99.90;;;;;;5032374;28;20242;-77
2022/12/28 03:00:18;;;;;;;2.85;0.98;;;9.70;99.90;;;;;;5020752;28;20165;-77
2022/12/28 03:03:03;;;;;;;1.90;0.80;;;9.70;99.90;;;;;;5032201;28;20721;-77
2022/12/28 03:09:10;;;;;;;4.60;0.80;;;9.80;99.90;;;;;;5031921;28;20181;-77
2022/12/28 03:11:57;;;;;;;2.53;1.30;;;9.80;99.90;;;;;;5015195;28;20183;-77
2022/12/28 03:14:35;;;;;;;2.78;0.93;;;9.80;99.90;;;;;;5015074;28;20193;-77
2022/12/28 03:31:19;;;;;;;2.30;0.80;;;10.00;99.90;;;;;;5031474;28;20181;-77
2022/12/28 03:33:52;;;;;;;2.85;0.90;;;10.00;99.90;;;;;;5015530;28;20220;-77
2022/12/28 03:36:42;;;;;;;1.40;0.60;;;10.00;99.90;;;;;;5019900;28;20234;-77
2022/12/28 03:39:29;;;;;;;1.85;0.70;;;10.00;99.90;;;;;;5031489;28;20209;-77
2022/12/28 03:45:09;;;;;;;1.88;0.80;;;10.20;99.90;;;;;;5014561;28;20235;-77
2022/12/28 03:47:38;;;;;;;1.30;0.60;;;10.20;99.90;;;;;;5015057;28;20196;-77
2022/12/28 03:50:05;;;;;;;1.40;0.70;;;10.30;99.90;;;;;;5049307;28;20564;-77
2022/12/28 03:52:32;;;;;;;2.10;0.68;;;10.30;99.90;;;;;;5030866;28;20177;-76
2022/12/28 03:54:58;;;;;;;1.30;0.60;;;10.40;99.90;;;;;;5013912;28;20230;-77
2022/12/28 03:57:24;;;;;;;2.55;0.60;;;10.40;99.90;;;;;;5014750;28;20530;-77
2022/12/28 03:59:50;;;;;;;1.53;0.80;;;10.50;99.90;;;;;;5014190;28;20192;-77
2022/12/28 04:02:17;;;;;;;2.13;0.70;;;10.50;99.90;;;;;;5022630;28;20603;-77
2022/12/28 04:04:43;;;;;;;2.37;0.87;;;10.50;99.90;;;;;;5013601;28;20221;-77
2022/12/28 04:07:09;;;;;;;4.75;0.90;;;10.60;99.90;;;;;;5047612;28;20221;-77
2022/12/28 04:09:34;;;;;;;3.30;0.80;;;10.60;99.90;;;;;;5047315;28;20173;-77
2022/12/28 04:12:01;;;;;;;1.48;0.57;;;10.70;99.90;;;;;;5047750;28;20935;-76
2022/12/28 04:14:56;;;;;;;2.33;0.68;;;10.70;99.90;;;;;;4984326;28;20304;-77
2022/12/28 04:17:22;;;;;;;2.05;0.75;;;10.70;99.90;;;;;;4996250;28;20294;-76
2022/12/28 04:19:48;;;;;;;1.50;0.70;;;10.80;99.90;;;;;;5047637;28;20821;-76
2022/12/28 04:22:13;;;;;;;3.93;0.70;;;10.80;99.90;;;;;;4997454;28;20177;-76
2022/12/28 04:24:39;;;;;;;1.40;0.70;;;10.80;99.90;;;;;;5014124;28;20253;-77
2022/12/28 04:27:06;;;;;;;1.20;0.60;;;10.90;99.90;;;;;;5047109;28;20169;-77
2022/12/28 04:29:32;;;;;;;1.80;0.93;;;10.90;99.90;;;;;;5047597;28;20177;-77
2022/12/28 04:32:01;;;;;;;1.40;0.70;;;11.00;99.90;;;;;;5047134;28;20518;-78
2022/12/28 04:34:28;;;;;;;1.55;0.68;;;11.00;99.90;;;;;;5046973;28;20195;-77
2022/12/28 04:37:02;;;;;;;1.50;0.70;;;11.00;99.90;;;;;;5013371;28;20172;-76
2022/12/28 04:39:28;;;;;;;2.63;0.90;;;11.00;99.90;;;;;;5014529;28;20535;-77
2022/12/28 04:41:54;;;;;;;2.40;0.70;;;11.00;99.90;;;;;;5047293;28;20256;-77
2022/12/28 04:44:20;;;;;;;1.63;0.60;;;11.10;99.90;;;;;;4997219;28;20188;-77
2022/12/28 04:46:45;;;;;;;1.83;0.60;;;11.10;99.90;;;;;;5047372;28;20173;-77
2022/12/28 04:49:11;;;;;;;1.13;0.53;;;11.10;99.90;;;;;;5047239;28;20197;-77
2022/12/28 04:51:36;;;;;;;2.20;0.70;;;11.20;99.90;;;;;;5018545;28;20213;-78
2022/12/28 04:54:02;;;;;;;2.27;0.70;;;11.20;99.90;;;;;;5047628;28;20216;-78
2022/12/28 04:56:28;;;;;;;1.90;1.00;;;11.20;99.90;;;;;;5034586;28;20177;-77
2022/12/28 04:58:56;;;;;;;1.60;0.70;;;11.20;99.90;;;;;;5052251;28;20203;-78
2022/12/28 05:01:22;;;;;;;1.67;0.70;;;11.20;99.90;;;;;;5034651;28;20185;-77
2022/12/28 05:03:48;;;;;;;1.90;0.70;;;11.30;99.90;;;;;;5050553;28;20203;-77
2022/12/28 05:06:19;;;;;;;2.55;1.75;;;11.30;99.90;;;;;;5017386;28;20572;-76
2022/12/28 05:08:45;;;;;;;2.20;0.80;;;11.30;99.90;;;;;;5034365;28;20177;-76
2022/12/28 05:11:23;;;;;;;2.78;0.70;;;11.30;99.90;;;;;;5050385;28;20195;-76
2022/12/28 05:13:49;;;;;;;1.48;0.77;;;11.30;99.90;;;;;;5049200;28;20331;-77
2022/12/28 05:16:20;;;;;;;1.85;0.70;;;11.30;99.90;;;;;;5050467;28;20625;-76
2022/12/28 05:18:46;;;;;;;1.40;0.65;;;11.40;99.90;;;;;;5050529;28;20205;-76
2022/12/28 05:21:19;;;;;;;1.40;0.70;;;11.40;99.90;;;;;;5050106;28;20174;-77
2022/12/28 05:23:45;;;;;;;2.13;0.70;;;11.40;99.90;;;;;;5051674;28;20616;-76
2022/12/28 05:26:13;;;;;;;1.87;0.70;;;11.40;99.90;;;;;;5034243;28;20248;-77
2022/12/28 05:28:39;;;;;;;3.25;0.90;;;11.50;99.90;;;;;;5056318;28;20169;-77
2022/12/28 05:31:09;;;;;;;1.98;0.77;;;11.50;99.90;;;;;;5050455;28;20172;-77
2022/12/28 05:33:35;;;;;;;1.73;0.80;;;11.50;99.90;;;;;;5050874;28;20189;-77
2022/12/28 05:36:06;;;;;;;1.83;0.70;;;11.50;99.90;;;;;;5051844;28;20169;-77
2022/12/28 05:38:32;;;;;;;2.28;0.93;;;11.50;99.90;;;;;;5049939;28;20262;-77
2022/12/28 05:41:25;;;;;;;2.50;0.90;;;11.50;99.90;;;;;;5052010;28;20173;-77
2022/12/28 05:43:52;;;;;;;2.25;0.80;;;11.50;99.90;;;;;;5046888;28;20232;-77
2022/12/28 05:46:20;;;;;;;2.28;0.73;;;11.60;99.90;;;;;;5033866;28;20512;-77
2022/12/28 05:48:47;;;;;;;1.45;0.63;;;11.60;99.90;;;;;;5049895;28;20176;-77
2022/12/28 05:51:18;;;;;;;1.90;0.60;;;11.60;99.90;;;;;;5066264;28;20227;-76
2022/12/28 05:53:45;;;;;;;2.30;0.70;;;11.60;99.90;;;;;;5049194;28;20315;-77
2022/12/28 05:56:18;;;;;;;1.30;0.50;;;11.60;99.90;;;;;;5050274;28;20983;-77
2022/12/28 05:58:45;;;;;;;2.13;0.77;;;11.60;99.90;;;;;;5032931;28;20201;-77
2022/12/28 06:01:17;;;;;;;1.60;0.70;;;11.70;99.90;;;;;;5049898;28;20183;-77
2022/12/28 06:03:44;;;;;;;1.65;0.60;;;11.70;99.90;;;;;;5046950;28;20189;-76
2022/12/28 06:06:19;;;;;;;2.15;0.68;;;11.70;99.90;;;;;;5039209;28;20645;-77
2022/12/28 06:08:46;;;;;;;2.13;0.60;;;11.70;99.90;;;;;;5033605;28;20203;-77
2022/12/28 06:11:18;;;;;;;1.65;0.60;;;11.70;99.90;;;;;;5033047;28;20181;-76
2022/12/28 06:13:45;;;;;;;1.92;0.50;;;11.70;99.90;;;;;;5033102;28;20201;-77
2022/12/28 06:16:16;;;;;;;1.17;0.50;;;11.80;99.90;;;;;;5032864;28;20173;-77
2022/12/28 06:18:42;;;;;;;2.30;0.80;;;11.80;99.90;;;;;;5032965;28;20688;-77
2022/12/28 06:21:29;;;;;;;1.10;0.50;;;11.80;99.90;;;;;;5032763;28;20196;-77
2022/12/28 06:23:57;;;;;;;2.22;0.60;;;11.80;99.90;;;;;;5032934;28;20200;-77
2022/12/28 06:26:23;;;;;;;1.40;0.60;;;11.80;99.90;;;;;;5050888;28;20165;-77
2022/12/28 06:28:50;;;;;;;1.40;0.60;;;11.80;99.90;;;;;;5051283;28;20181;-77
2022/12/28 06:31:18;;;;;;;1.40;0.65;;;11.80;99.90;;;;;;5032297;28;20165;-77
2022/12/28 06:33:44;;;;;;;1.83;0.60;;;11.80;99.90;;;;;;5050366;28;20223;-77
2022/12/28 06:36:19;;;;;;;1.75;0.57;;;11.90;99.90;;;;;;5051027;28;20184;-77
2022/12/28 06:38:45;;;;;;;1.50;0.67;;;11.90;99.90;;;;;;5032453;28;20271;-77
2022/12/28 06:41:13;;;;;;;1.20;0.60;;;11.90;99.90;;;;;;5050678;28;20572;-77
2022/12/28 06:43:40;;;;;;;1.77;0.60;;;11.90;99.90;;;;;;5055124;28;20224;-77
2022/12/28 06:46:06;;;;;;;1.40;0.70;;;11.90;99.90;;;;;;5033009;28;20181;-77
2022/12/28 06:48:33;;;;;;;1.77;0.60;;;11.90;99.90;;;;;;4999922;28;20161;-77
2022/12/28 06:51:04;;;;;;;2.13;0.60;;;11.90;99.90;;;;;;5032654;28;20756;-77
2022/12/28 06:53:33;;;;;;;1.55;0.60;;;11.90;99.90;;;;;;5015099;28;20212;-77
2022/12/28 06:56:01;;;;;;;1.42;0.60;;;11.90;99.90;;;;;;5032483;28;20188;-77
2022/12/28 06:58:28;;;;;;;3.15;0.60;;;11.90;99.90;;;;;;5032698;28;20291;-77
2022/12/28 07:00:55;;;;;;;3.40;0.77;;;11.90;99.90;;;;;;5015145;28;20594;-77
2022/12/28 07:03:22;;;;;;;1.63;0.68;;;11.90;99.90;;;;;;5040024;28;20220;-77
2022/12/28 07:05:48;;;;;;;1.60;0.70;;;11.90;99.90;;;;;;5047365;28;20168;-77
2022/12/28 07:08:14;;;;;;;1.65;0.68;;;12.00;99.90;;;;;;5052839;28;20176;-77
2022/12/28 07:10:40;;;;;;;1.20;0.60;;;12.00;99.90;;;;;;5018972;28;20183;-77
2022/12/28 07:13:06;;;;;;;1.50;0.60;;;12.00;99.90;;;;;;5051271;28;20970;-77
2022/12/28 07:15:35;;;;;;;1.23;0.60;;;12.00;99.90;;;;;;5051917;28;20574;-77
2022/12/28 07:18:01;;;;;;;2.75;0.60;;;12.00;99.90;;;;;;5070008;28;20196;-76
2022/12/28 07:20:26;;;;;;;1.87;0.67;;;12.00;99.90;;;;;;5057344;28;20164;-77
2022/12/28 07:22:53;;;;;;;2.63;0.60;;;12.00;99.90;;;;;;5052613;28;21210;-76
2022/12/28 07:25:19;;;;;;;1.80;0.60;;;12.00;99.90;;;;;;5051272;28;20188;-76
2022/12/28 07:27:45;;;;;;;3.78;1.35;;;12.00;99.90;;;;;;5070255;28;20207;-75
2022/12/28 07:30:11;;;;;;;2.67;0.70;;;12.00;99.90;;;;;;5040307;28;20664;-75
2022/12/28 07:32:37;;;;;;;1.30;0.50;;;12.00;99.90;;;;;;5027614;28;20189;-75
2022/12/28 07:35:03;;;;;;;1.70;0.67;;;12.00;99.90;;;;;;5032168;28;20291;-75
2022/12/28 07:37:29;;;;;;;1.30;0.60;;;12.00;99.90;;;;;;5069693;28;20299;-75
2022/12/28 07:39:55;;;;;;;1.20;0.60;;;12.00;99.90;;;;;;5052012;28;20188;-75
2022/12/28 07:42:20;;;;;;;1.53;0.50;;;12.10;99.90;;;;;;5070957;28;20172;-75
2022/12/28 07:44:47;;;;;;;1.30;0.50;;;12.10;99.90;;;;;;5035207;28;20198;-75
2022/12/28 07:47:15;;;;;;;1.63;0.70;;;12.10;99.90;;;;;;5069971;28;20263;-75
2022/12/28 07:49:41;;;;;;;1.43;0.60;;;12.10;99.90;;;;;;5052997;28;20587;-76
2022/12/28 07:52:07;;;;;;;1.10;0.40;;;12.10;99.90;;;;;;5069874;28;21164;-76
2022/12/28 07:54:32;;;;;;;1.83;0.57;;;12.10;99.90;;;;;;5069590;28;20617;-76
2022/12/28 07:56:58;;;;;;;1.27;0.50;;;12.20;99.90;;;;;;5054392;28;20222;-76
2022/12/28 07:59:24;;;;;;;1.97;0.53;;;12.20;99.90;;;;;;5069993;28;20203;-75
2022/12/28 08:01:50;;;;;;;1.10;0.50;;;12.20;99.90;;;;;;5052573;28;20710;-75
2022/12/28 08:04:16;;;;;;;1.20;0.60;;;12.30;99.90;;;;;;5017849;28;20247;-75
2022/12/28 08:06:44;;;;;;;1.50;0.60;;;12.30;99.90;;;;;;5036359;28;20579;-75
2022/12/28 08:09:13;;;;;;;1.37;0.50;;;12.30;99.90;;;;;;5054471;28;20590;-75
2022/12/28 08:11:44;;;;;;;1.33;0.50;;;12.30;99.90;;;;;;5050213;28;20979;-75
2022/12/28 08:14:10;;;;;;;2.03;0.60;;;12.30;99.90;;;;;;5050244;28;20236;-75
2022/12/28 08:16:38;;;;;;;1.63;0.60;;;12.30;99.90;;;;;;5050334;28;20571;-75
2022/12/28 08:19:05;;;;;;;1.88;0.68;;;12.30;99.90;;;;;;5049750;28;20277;-75
2022/12/28 08:21:36;;;;;;;1.38;0.50;;;12.30;99.90;;;;;;5031690;28;20173;-75
2022/12/28 08:24:03;;;;;;;1.35;0.60;;;12.40;99.90;;;;;;5023827;28;20222;-75
2022/12/28 08:26:34;;;;;;;1.63;0.60;;;12.40;99.90;;;;;;5069638;28;20183;-75
2022/12/28 08:29:02;;;;;;;1.55;0.50;;;12.40;99.90;;;;;;5052368;28;20589;-75
2022/12/28 08:31:31;;;;;;;1.50;0.50;;;12.40;99.90;;;;;;5038778;28;20164;-75
2022/12/28 08:33:59;;;;;;;1.40;0.50;;;12.40;99.90;;;;;;5074537;28;20678;-75
2022/12/28 08:36:25;;;;;;;1.50;0.40;;;12.40;99.90;;;;;;5055801;28;20677;-75
2022/12/28 08:38:52;;;;;;;1.30;0.50;;;12.40;99.90;;;;;;5055342;28;20622;-75
2022/12/28 08:41:20;;;;;;;2.10;0.50;;;12.40;99.90;;;;;;5072712;28;20606;-75
2022/12/28 08:43:47;;;;;;;1.30;0.60;;;12.50;99.90;;;;;;5072493;28;20645;-75
2022/12/28 08:46:15;;;;;;;1.75;0.40;;;12.50;99.90;;;;;;5042775;28;20710;-75
2022/12/28 08:48:41;;;;;;;1.10;0.43;;;12.50;99.90;;;;;;5054886;28;20183;-75
2022/12/28 08:51:17;;;;;;;1.43;0.63;;;12.60;99.90;;;;;;5025226;28;20646;-76
2022/12/28 08:53:43;;;;;;;1.60;0.40;;;12.60;99.90;;;;;;5018103;28;20634;-76
2022/12/28 08:56:12;;;;;;;1.20;0.50;;;12.60;99.90;;;;;;5020967;28;20599;-75
2022/12/28 08:58:40;;;;;;;1.30;0.60;;;12.70;99.90;;;;;;5036207;28;21091;-76
2022/12/28 09:01:14;;;;;;;1.93;0.70;;;12.70;99.90;;;;;;5003462;28;20227;-76
2022/12/28 09:03:41;;;;;;;1.23;0.60;;;12.70;99.90;;;;;;5019092;28;20632;-75
2022/12/28 09:06:12;;;;;;;1.20;0.50;;;12.70;99.90;;;;;;5020063;28;20177;-76
2022/12/28 09:08:38;;;;;;;1.40;0.40;;;12.80;99.90;;;;;;5036685;28;20621;-75
2022/12/28 09:11:07;;;;;;;1.30;0.50;;;12.80;99.90;;;;;;5036320;28;20594;-75
2022/12/28 09:13:33;;;;;;;1.15;0.40;;;12.80;99.90;;;;;;5054270;28;20942;-76
2022/12/28 09:16:02;;;;;;;2.50;0.60;;;12.80;99.90;;;;;;5044211;28;20198;-76
2022/12/28 09:18:28;;;;;;;1.30;0.47;;;12.90;99.90;;;;;;5035892;28;20657;-76
2022/12/28 09:20:54;;;;;;;1.50;0.50;;;12.90;99.90;;;;;;5019190;28;21202;-76
2022/12/28 09:23:20;;;;;;;1.10;0.50;;;12.90;99.90;;;;;;5035304;28;20613;-75
2022/12/28 09:25:46;;;;;;;1.30;0.50;;;12.90;99.90;;;;;;5019313;28;20584;-76
2022/12/28 09:28:12;;;;;;;1.20;0.50;;;12.90;99.90;;;;;;5053913;28;20173;-76
2022/12/28 09:30:38;;;;;;;1.20;0.50;;;12.90;99.90;;;;;;5019711;28;20637;-76
2022/12/28 09:35:49;;;;;;;1.40;0.57;;;12.90;99.90;;;;;;5054358;28;20177;-76
2022/12/28 09:38:14;;;;;;;1.15;0.50;;;12.90;99.90;;;;;;5019148;28;20647;-76
2022/12/28 09:40:40;;;;;;;1.50;0.50;;;12.90;99.90;;;;;;5035377;28;20180;-76
2022/12/28 09:43:10;;;;;;;2.27;0.40;;;12.90;99.90;;;;;;5018368;28;20207;-75
2022/12/28 09:45:36;;;;;;;2.13;0.60;;;12.90;99.90;;;;;;5053801;28;20177;-75
2022/12/28 09:48:09;;;;;;;1.50;0.50;;;13.00;99.90;;;;;;5035514;28;20610;-75
2022/12/28 09:50:35;;;;;;;2.33;0.63;;;13.00;99.90;;;;;;5019448;28;20579;-75
2022/12/28 09:53:22;;;;;;;1.50;0.47;;;13.00;99.90;;;;;;5035253;28;21201;-75
2022/12/28 09:55:58;;;;;;;1.20;0.50;;;13.10;99.90;;;;;;5019347;28;20648;-76
2022/12/28 09:58:25;;;;;;;1.10;0.40;;;13.20;99.90;;;;;;5035766;28;20627;-76
2022/12/28 10:00:54;;;;;;;1.10;0.43;;;13.20;99.90;;;;;;5052930;28;20587;-76
2022/12/28 10:03:39;;;;;;;1.40;0.70;;;13.30;99.90;;;;;;5052532;28;20607;-77
2022/12/28 10:06:14;;;;;;;1.37;0.50;;;13.30;99.90;;;;;;5018395;28;21121;-76
2022/12/28 10:08:49;;;;;;;1.50;0.50;;;13.30;99.90;;;;;;5053128;28;20587;-76
2022/12/28 10:11:23;;;;;;;2.03;0.60;;;13.40;99.90;;;;;;5034808;28;20587;-77
2022/12/28 10:13:55;;;;;;;1.20;0.50;;;13.40;99.90;;;;;;5018332;28;20668;-76
2022/12/28 10:16:22;;;;;;;1.60;0.50;;;13.40;99.90;;;;;;5018213;28;20590;-76
2022/12/28 10:18:48;;;;;;;1.90;0.50;;;13.40;99.90;;;;;;5018594;28;20639;-75
2022/12/28 10:21:20;;;;;;;1.53;0.40;;;13.40;99.90;;;;;;5034416;28;20640;-75
2022/12/28 10:23:52;;;;;;;1.20;0.50;;;13.50;99.90;;;;;;5034850;28;20699;-76
2022/12/28 10:26:19;;;;;;;1.10;0.50;;;13.50;99.90;;;;;;5038694;28;21174;-76
2022/12/28 10:28:56;;;;;;;1.93;0.50;;;13.50;99.90;;;;;;5017899;28;20682;-76
2022/12/28 10:31:33;;;;;;;1.77;0.50;;;13.60;99.90;;;;;;5017989;28;20586;-77
2022/12/28 10:33:59;;;;;;;1.63;0.50;;;13.60;99.90;;;;;;5034220;28;20607;-77
2022/12/28 10:36:32;;;;;;;1.20;0.50;;;13.70;99.90;;;;;;5034677;28;20567;-76
2022/12/28 10:38:59;;;;;;;1.27;0.50;;;13.70;99.90;;;;;;5034234;28;20638;-77
2022/12/28 10:41:35;;;;;;;1.30;0.50;;;13.70;99.90;;;;;;5034504;28;20591;-77
2022/12/28 10:44:13;;;;;;;1.43;0.60;;;13.70;99.90;;;;;;5017352;28;20606;-79
2022/12/28 10:46:59;;;;;;;1.80;0.53;;;13.70;99.90;;;;;;5034395;28;20616;-77
2022/12/28 10:49:30;;;;;;;1.50;0.60;;;13.70;99.90;;;;;;5034246;28;20586;-77
2022/12/28 10:52:13;;;;;;;1.30;0.60;;;13.80;99.90;;;;;;5051267;28;20590;-76
2022/12/28 10:54:39;;;;;;;1.77;0.60;;;13.80;99.90;;;;;;5017677;28;20615;-77
2022/12/28 10:57:04;;;;;;;1.30;0.60;;;13.90;99.90;;;;;;5034904;28;20595;-78
2022/12/28 10:59:31;;;;;;;1.40;0.70;;;13.90;99.90;;;;;;5052519;28;20254;-77
2022/12/28 11:02:21;;;;;;;1.30;0.50;;;14.00;99.90;;;;;;5033948;28;20935;-77
2022/12/28 11:04:59;;;;;;;1.53;0.53;;;14.00;99.90;;;;;;5056650;28;20611;-76
2022/12/28 11:07:34;;;;;;;1.70;0.60;;;14.00;99.90;;;;;;5051778;28;20575;-76
2022/12/28 11:10:25;;;;;;;2.33;0.60;;;14.00;99.90;;;;;;5052231;28;20646;-77
2022/12/28 11:12:57;;;;;;;1.20;0.60;;;14.00;99.90;;;;;;5051448;28;20568;-76
2022/12/28 11:15:26;;;;;;;1.67;0.70;;;14.00;99.90;;;;;;5051360;28;20603;-76
2022/12/28 11:17:55;;;;;;;2.10;0.60;;;14.00;99.90;;;;;;5033913;28;20631;-76
2022/12/28 11:20:32;;;;;;;2.30;0.80;;;14.00;99.90;;;;;;5051764;28;20707;-76
2022/12/28 11:22:58;;;;;;;1.93;0.50;;;14.00;99.90;;;;;;5033142;28;20579;-77
2022/12/28 11:25:30;;;;;;;2.23;0.70;;;13.90;99.90;;;;;;5033378;28;20575;-77
2022/12/28 11:27:57;;;;;;;1.60;0.70;;;13.90;99.90;;;;;;5033688;28;21150;-79
2022/12/28 11:30:23;;;;;;;1.37;0.70;;;13.90;99.90;;;;;;5033905;28;20623;-79
2022/12/28 11:32:55;;;;;;;2.07;0.90;;;13.90;99.90;;;;;;5033155;28;20622;-75
2022/12/28 11:35:42;;;;;;;1.70;0.73;;;13.80;99.90;;;;;;5051162;28;20647;-78
2022/12/28 11:38:30;;;;;;;1.77;0.70;;;13.80;99.90;;;;;;5017186;28;20635;-79
2022/12/28 11:40:58;;;;;;;2.53;0.87;;;13.80;99.90;;;;;;5037247;28;21220;-79
2022/12/28 11:43:29;;;;;;;2.33;0.70;;;13.70;99.90;;;;;;5033315;28;20654;-79
2022/12/28 11:46:00;;;;;;;3.00;0.60;;;13.70;99.90;;;;;;5050299;28;20575;-76
2022/12/28 11:48:48;;;;;;;3.50;1.47;;;13.70;99.90;;;;;;5037680;28;20586;-77
2022/12/28 11:51:25;;;;;;;2.23;0.70;;;13.70;99.90;;;;;;5036732;28;20587;-79
2022/12/28 11:53:57;;;;;;;1.80;0.70;;;13.80;99.90;;;;;;5053543;28;20633;-78
2022/12/28 11:56:46;;;;;;;1.90;0.70;;;13.70;99.90;;;;;;5054044;28;20587;-79
2022/12/28 11:59:30;;;;;;;1.40;0.70;;;13.70;99.90;;;;;;5017042;28;20689;-79
2022/12/28 12:02:01;;;;;;;1.40;0.70;;;13.70;99.90;;;;;;5032838;28;20665;-79
2022/12/28 12:04:37;;;;;;;1.90;0.80;;;13.70;99.90;;;;;;5032523;28;20607;-78
2022/12/28 12:07:03;;;;;;;1.37;0.60;;;13.70;99.90;;;;;;5050476;28;20579;-78
2022/12/28 12:09:37;;;;;;;1.70;0.60;;;13.70;99.90;;;;;;5052218;28;20577;-78
2022/12/28 12:12:28;;;;;;;3.17;1.17;;;13.70;99.90;;;;;;5033797;28;20216;-78
2022/12/28 12:15:02;;;;;;;2.27;0.83;;;13.70;99.90;;;;;;5046197;28;20697;-78
2022/12/28 12:17:46;;;;;;;1.50;0.80;;;13.70;99.90;;;;;;5020430;28;20591;-77
2022/12/28 12:20:29;;;;;;;3.30;1.10;;;13.70;99.90;;;;;;5052134;28;20572;-76
2022/12/28 12:23:31;;;;;;;3.70;0.80;;;13.70;99.90;;;;;;5033054;28;20583;-76
2022/12/28 12:26:14;;;;;;;2.70;0.90;;;13.70;99.90;;;;;;5029723;28;20591;-75
2022/12/28 12:28:45;;;;;;;2.77;0.70;;;13.70;99.90;;;;;;5032478;28;20965;-74
2022/12/28 12:31:19;;;;;;;1.60;0.60;;;13.70;99.90;;;;;;5033207;28;20990;-77
2022/12/28 12:33:47;;;;;;;2.93;1.13;;;13.70;99.90;;;;;;5049786;28;20998;-75
2022/12/28 12:36:55;;;;;;;1.90;0.90;;;13.70;99.90;;;;;;5032667;28;20582;-77
2022/12/28 12:39:42;;;;;;;1.30;0.70;;;13.60;99.90;;;;;;4969804;28;20642;-78
2022/12/28 12:42:17;;;;;;;1.87;0.70;;;13.60;99.90;;;;;;5000120;28;21164;-78
2022/12/28 12:45:13;;;;;;;3.00;0.60;;;13.60;99.90;;;;;;5032139;28;20634;-77
2022/12/28 12:48:00;;;;;;;3.07;0.70;;;13.60;99.90;;;;;;5033310;28;20623;-77
2022/12/28 12:50:56;;;;;;;2.53;0.80;;;13.60;99.90;;;;;;5050803;28;20571;-77
2022/12/28 12:53:56;;;;;;;2.73;0.60;;;13.60;99.90;;;;;;5032357;28;21193;-76
2022/12/28 12:56:34;;;;;;;2.37;0.80;;;13.60;99.90;;;;;;5030815;28;20589;-77
2022/12/28 12:59:38;;;;;;;2.80;0.80;;;13.50;99.90;;;;;;5013960;28;20631;-76
2022/12/28 13:02:10;;;;;;;1.50;0.60;;;13.50;99.90;;;;;;4989563;28;20588;-76
2022/12/28 13:04:39;;;;;;;1.67;0.53;;;13.50;99.90;;;;;;5012608;28;20608;-76
2022/12/28 13:07:15;;;;;;;1.50;0.60;;;13.50;99.90;;;;;;5030763;28;20616;-76
2022/12/28 13:09:42;;;;;;;3.20;1.00;;;13.50;99.90;;;;;;5013178;28;20581;-76
2022/12/28 13:12:14;;;;;;;1.40;0.50;;;13.50;99.90;;;;;;5030440;28;20580;-76
2022/12/28 13:14:45;;;;;;;2.23;0.67;;;13.40;99.90;;;;;;5030281;28;20603;-75
2022/12/28 13:17:19;;;;;;;2.45;0.60;;;13.40;99.90;;;;;;5017354;28;20679;-77
2022/12/28 13:19:45;;;;;;;2.40;0.80;;;13.40;99.90;;;;;;5016283;28;20407;-76
2022/12/28 13:22:31;;;;;;;1.70;0.70;;;13.40;99.90;;;;;;5033631;28;20579;-76
2022/12/28 13:24:57;;;;;;;3.67;0.60;;;13.40;99.90;;;;;;5016156;28;20196;-76
2022/12/28 13:27:43;;;;;;;1.50;0.83;;;13.40;99.90;;;;;;5016820;28;20579;-76
2022/12/28 13:30:17;;;;;;;2.60;0.80;;;13.40;99.90;;;;;;5000687;28;20603;-77
2022/12/28 13:32:58;;;;;;;3.07;0.80;;;13.40;99.90;;;;;;5018081;28;20572;-78
2022/12/28 13:35:26;;;;;;;1.60;0.70;;;13.40;99.90;;;;;;5033689;28;20592;-78
2022/12/28 13:38:02;;;;;;;1.80;0.70;;;13.40;99.90;;;;;;5016753;28;20624;-77
2022/12/28 13:40:30;;;;;;;2.10;0.60;;;13.40;99.90;;;;;;5016102;28;20612;-77
2022/12/28 13:43:15;;;;;;;1.60;0.60;;;13.40;99.90;;;;;;5034737;28;21140;-77